sensor_id;sensor_type;location;lat;lon;timestamp;P1;durP1;ratioP1;P2;durP2;ratioP2
8247;SDS011;4164;49.844;8.830;2022-10-22T00:00:54;3.57;;;2.70;;
8247;SDS011;4164;49.844;8.830;2022-10-22T00:03:19;7.93;;;2.77;;
8247;SDS011;4164;49.844;8.830;2022-10-22T00:05:46;4.67;;;2.60;;
8247;SDS011;4164;49.844;8.830;2022-10-22T00:08:12;3.90;;;1.93;;
8247;SDS011;4164;49.844;8.830;2022-10-22T00:10:38;4.50;;;2.43;;
8247;SDS011;4164;49.844;8.830;2022-10-22T00:13:04;3.30;;;2.07;;
8247;SDS011;4164;49.844;8.830;2022-10-22T00:15:30;7.30;;;2.20;;
8247;SDS011;4164;49.844;8.830;2022-10-22T00:17:55;4.40;;;2.43;;
8247;SDS011;4164;49.844;8.830;2022-10-22T00:20:21;3.47;;;1.90;;
8247;SDS011;4164;49.844;8.830;2022-10-22T00:22:46;2.07;;;1.47;;
8247;SDS011;4164;49.844;8.830;2022-10-22T00:25:12;5.20;;;1.43;;
8247;SDS011;4164;49.844;8.830;2022-10-22T00:27:38;2.07;;;1.30;;
8247;SDS011;4164;49.844;8.830;2022-10-22T00:30:04;2.47;;;1.23;;
8247;SDS011;4164;49.844;8.830;2022-10-22T00:32:29;4.73;;;1.20;;
8247;SDS011;4164;49.844;8.830;2022-10-22T00:34:55;3.30;;;1.17;;
8247;SDS011;4164;49.844;8.830;2022-10-22T00:37:20;2.50;;;1.10;;
8247;SDS011;4164;49.844;8.830;2022-10-22T00:39:46;3.13;;;1.10;;
8247;SDS011;4164;49.844;8.830;2022-10-22T00:42:15;3.47;;;1.20;;
8247;SDS011;4164;49.844;8.830;2022-10-22T00:47:39;1.93;;;1.10;;
8247;SDS011;4164;49.844;8.830;2022-10-22T00:50:09;1.80;;;1.13;;
8247;SDS011;4164;49.844;8.830;2022-10-22T00:52:36;2.10;;;1.00;;
8247;SDS011;4164;49.844;8.830;2022-10-22T00:55:02;2.53;;;1.23;;
8247;SDS011;4164;49.844;8.830;2022-10-22T00:57:28;1.03;;;0.90;;
8247;SDS011;4164;49.844;8.830;2022-10-22T00:59:54;3.97;;;1.07;;
8247;SDS011;4164;49.844;8.830;2022-10-22T01:02:21;2.40;;;1.07;;
8247;SDS011;4164;49.844;8.830;2022-10-22T01:04:46;1.37;;;1.00;;
8247;SDS011;4164;49.844;8.830;2022-10-22T01:07:16;3.20;;;1.30;;
8247;SDS011;4164;49.844;8.830;2022-10-22T01:12:34;1.37;;;0.90;;
8247;SDS011;4164;49.844;8.830;2022-10-22T01:15:15;2.57;;;1.20;;
8247;SDS011;4164;49.844;8.830;2022-10-22T01:23:57;2.07;;;1.10;;
8247;SDS011;4164;49.844;8.830;2022-10-22T01:31:28;1.63;;;1.20;;
8247;SDS011;4164;49.844;8.830;2022-10-22T01:33:58;3.07;;;1.10;;
8247;SDS011;4164;49.844;8.830;2022-10-22T01:36:25;4.80;;;1.20;;
8247;SDS011;4164;49.844;8.830;2022-10-22T01:38:53;1.33;;;1.10;;
8247;SDS011;4164;49.844;8.830;2022-10-22T01:41:20;3.13;;;1.20;;
8247;SDS011;4164;49.844;8.830;2022-10-22T01:43:46;3.20;;;1.30;;
8247;SDS011;4164;49.844;8.830;2022-10-22T01:46:12;1.10;;;1.00;;
8247;SDS011;4164;49.844;8.830;2022-10-22T01:56:52;2.73;;;1.37;;
8247;SDS011;4164;49.844;8.830;2022-10-22T01:59:30;1.93;;;1.73;;
8247;SDS011;4164;49.844;8.830;2022-10-22T02:02:11;3.83;;;1.30;;
8247;SDS011;4164;49.844;8.830;2022-10-22T02:04:45;3.20;;;1.30;;
8247;SDS011;4164;49.844;8.830;2022-10-22T02:07:15;2.80;;;1.43;;
8247;SDS011;4164;49.844;8.830;2022-10-22T02:09:45;2.87;;;1.17;;
8247;SDS011;4164;49.844;8.830;2022-10-22T02:12:11;1.60;;;1.00;;
8247;SDS011;4164;49.844;8.830;2022-10-22T02:14:40;3.53;;;1.30;;
8247;SDS011;4164;49.844;8.830;2022-10-22T02:17:08;1.20;;;1.10;;
8247;SDS011;4164;49.844;8.830;2022-10-22T02:19:40;2.00;;;1.20;;
8247;SDS011;4164;49.844;8.830;2022-10-22T02:22:14;2.03;;;1.20;;
8247;SDS011;4164;49.844;8.830;2022-10-22T02:24:39;4.77;;;1.20;;
8247;SDS011;4164;49.844;8.830;2022-10-22T02:27:10;1.50;;;1.13;;
8247;SDS011;4164;49.844;8.830;2022-10-22T02:35:16;1.63;;;1.33;;
8247;SDS011;4164;49.844;8.830;2022-10-22T02:37:47;1.50;;;1.30;;
8247;SDS011;4164;49.844;8.830;2022-10-22T02:40:14;2.87;;;1.40;;
8247;SDS011;4164;49.844;8.830;2022-10-22T02:42:40;3.10;;;1.27;;
8247;SDS011;4164;49.844;8.830;2022-10-22T02:45:07;2.33;;;1.40;;
8247;SDS011;4164;49.844;8.830;2022-10-22T02:47:33;1.87;;;1.33;;
8247;SDS011;4164;49.844;8.830;2022-10-22T02:49:58;4.53;;;1.47;;
8247;SDS011;4164;49.844;8.830;2022-10-22T02:52:24;3.13;;;1.23;;
8247;SDS011;4164;49.844;8.830;2022-10-22T02:54:50;3.23;;;1.50;;
8247;SDS011;4164;49.844;8.830;2022-10-22T02:57:15;4.17;;;1.37;;
8247;SDS011;4164;49.844;8.830;2022-10-22T02:59:41;2.57;;;1.50;;
8247;SDS011;4164;49.844;8.830;2022-10-22T03:02:06;3.03;;;1.60;;
8247;SDS011;4164;49.844;8.830;2022-10-22T03:04:32;4.80;;;1.30;;
8247;SDS011;4164;49.844;8.830;2022-10-22T03:06:57;6.23;;;1.60;;
8247;SDS011;4164;49.844;8.830;2022-10-22T03:09:23;3.93;;;1.50;;
8247;SDS011;4164;49.844;8.830;2022-10-22T03:11:49;3.83;;;1.53;;
8247;SDS011;4164;49.844;8.830;2022-10-22T03:14:14;2.93;;;1.50;;
8247;SDS011;4164;49.844;8.830;2022-10-22T03:16:40;2.70;;;1.30;;
8247;SDS011;4164;49.844;8.830;2022-10-22T03:19:05;1.20;;;1.10;;
8247;SDS011;4164;49.844;8.830;2022-10-22T03:21:35;3.60;;;1.60;;
8247;SDS011;4164;49.844;8.830;2022-10-22T03:24:06;2.33;;;1.30;;
8247;SDS011;4164;49.844;8.830;2022-10-22T03:26:35;5.07;;;1.40;;
8247;SDS011;4164;49.844;8.830;2022-10-22T03:29:02;2.53;;;1.50;;
8247;SDS011;4164;49.844;8.830;2022-10-22T03:31:28;1.40;;;1.30;;
8247;SDS011;4164;49.844;8.830;2022-10-22T03:33:54;2.33;;;1.73;;
8247;SDS011;4164;49.844;8.830;2022-10-22T03:36:20;6.30;;;1.67;;
8247;SDS011;4164;49.844;8.830;2022-10-22T03:38:45;1.40;;;1.30;;
8247;SDS011;4164;49.844;8.830;2022-10-22T03:41:11;2.67;;;1.30;;
8247;SDS011;4164;49.844;8.830;2022-10-22T03:43:37;1.93;;;1.50;;
8247;SDS011;4164;49.844;8.830;2022-10-22T03:46:04;2.10;;;1.30;;
8247;SDS011;4164;49.844;8.830;2022-10-22T03:48:30;4.20;;;1.33;;
8247;SDS011;4164;49.844;8.830;2022-10-22T03:50:55;3.47;;;1.60;;
8247;SDS011;4164;49.844;8.830;2022-10-22T03:53:21;1.83;;;1.40;;
8247;SDS011;4164;49.844;8.830;2022-10-22T03:55:47;1.93;;;1.40;;
8247;SDS011;4164;49.844;8.830;2022-10-22T03:58:12;2.67;;;1.50;;
8247;SDS011;4164;49.844;8.830;2022-10-22T04:00:38;1.70;;;1.60;;
8247;SDS011;4164;49.844;8.830;2022-10-22T04:03:03;2.87;;;1.47;;
8247;SDS011;4164;49.844;8.830;2022-10-22T04:05:30;1.97;;;1.40;;
8247;SDS011;4164;49.844;8.830;2022-10-22T04:07:57;2.73;;;1.40;;
8247;SDS011;4164;49.844;8.830;2022-10-22T04:10:23;2.60;;;1.60;;
8247;SDS011;4164;49.844;8.830;2022-10-22T04:12:48;4.57;;;1.77;;
8247;SDS011;4164;49.844;8.830;2022-10-22T04:15:14;3.90;;;1.77;;
8247;SDS011;4164;49.844;8.830;2022-10-22T04:17:40;2.57;;;1.30;;
8247;SDS011;4164;49.844;8.830;2022-10-22T04:20:05;1.67;;;1.57;;
8247;SDS011;4164;49.844;8.830;2022-10-22T04:22:32;8.67;;;1.73;;
8247;SDS011;4164;49.844;8.830;2022-10-22T04:24:58;3.93;;;1.73;;
8247;SDS011;4164;49.844;8.830;2022-10-22T04:27:24;1.63;;;1.37;;
8247;SDS011;4164;49.844;8.830;2022-10-22T04:29:50;2.17;;;1.57;;
8247;SDS011;4164;49.844;8.830;2022-10-22T04:32:16;3.37;;;2.03;;
8247;SDS011;4164;49.844;8.830;2022-10-22T04:34:42;2.10;;;1.60;;
8247;SDS011;4164;49.844;8.830;2022-10-22T04:37:07;3.07;;;1.53;;
8247;SDS011;4164;49.844;8.830;2022-10-22T04:39:33;4.67;;;1.80;;
8247;SDS011;4164;49.844;8.830;2022-10-22T04:41:58;1.53;;;1.40;;
8247;SDS011;4164;49.844;8.830;2022-10-22T04:44:24;1.93;;;1.30;;
8247;SDS011;4164;49.844;8.830;2022-10-22T04:46:49;3.43;;;1.47;;
8247;SDS011;4164;49.844;8.830;2022-10-22T04:49:15;2.33;;;1.50;;
8247;SDS011;4164;49.844;8.830;2022-10-22T04:51:40;5.03;;;1.77;;
8247;SDS011;4164;49.844;8.830;2022-10-22T04:54:06;1.67;;;1.57;;
8247;SDS011;4164;49.844;8.830;2022-10-22T04:56:31;3.80;;;1.50;;
8247;SDS011;4164;49.844;8.830;2022-10-22T04:59:01;4.13;;;2.17;;
8247;SDS011;4164;49.844;8.830;2022-10-22T05:01:32;2.23;;;1.50;;
8247;SDS011;4164;49.844;8.830;2022-10-22T05:04:03;2.50;;;1.60;;
8247;SDS011;4164;49.844;8.830;2022-10-22T05:06:30;5.80;;;1.90;;
8247;SDS011;4164;49.844;8.830;2022-10-22T05:08:58;4.23;;;1.73;;
8247;SDS011;4164;49.844;8.830;2022-10-22T05:11:27;2.50;;;2.27;;
8247;SDS011;4164;49.844;8.830;2022-10-22T05:13:55;2.37;;;1.80;;
8247;SDS011;4164;49.844;8.830;2022-10-22T05:16:21;2.33;;;1.43;;
8247;SDS011;4164;49.844;8.830;2022-10-22T05:18:47;2.90;;;1.60;;
8247;SDS011;4164;49.844;8.830;2022-10-22T05:21:14;3.87;;;1.30;;
8247;SDS011;4164;49.844;8.830;2022-10-22T05:23:42;5.63;;;0.90;;
8247;SDS011;4164;49.844;8.830;2022-10-22T05:26:09;5.00;;;1.30;;
8247;SDS011;4164;49.844;8.830;2022-10-22T05:28:36;2.37;;;1.47;;
8247;SDS011;4164;49.844;8.830;2022-10-22T05:31:02;1.67;;;1.10;;
8247;SDS011;4164;49.844;8.830;2022-10-22T05:33:29;4.70;;;1.90;;
8247;SDS011;4164;49.844;8.830;2022-10-22T05:35:55;3.10;;;1.50;;
8247;SDS011;4164;49.844;8.830;2022-10-22T05:38:21;3.33;;;1.90;;
8247;SDS011;4164;49.844;8.830;2022-10-22T05:40:48;2.70;;;1.97;;
8247;SDS011;4164;49.844;8.830;2022-10-22T05:43:28;4.03;;;1.77;;
8247;SDS011;4164;49.844;8.830;2022-10-22T05:45:54;4.30;;;1.90;;
8247;SDS011;4164;49.844;8.830;2022-10-22T05:48:20;2.77;;;1.67;;
8247;SDS011;4164;49.844;8.830;2022-10-22T05:50:46;2.43;;;1.83;;
8247;SDS011;4164;49.844;8.830;2022-10-22T05:53:15;2.87;;;1.67;;
8247;SDS011;4164;49.844;8.830;2022-10-22T05:55:41;3.63;;;1.80;;
8247;SDS011;4164;49.844;8.830;2022-10-22T05:58:08;3.77;;;1.43;;
8247;SDS011;4164;49.844;8.830;2022-10-22T06:00:34;2.23;;;1.70;;
8247;SDS011;4164;49.844;8.830;2022-10-22T06:03:00;3.47;;;1.50;;
8247;SDS011;4164;49.844;8.830;2022-10-22T06:05:25;5.03;;;1.53;;
8247;SDS011;4164;49.844;8.830;2022-10-22T06:07:51;3.93;;;1.40;;
8247;SDS011;4164;49.844;8.830;2022-10-22T06:10:17;2.37;;;1.70;;
8247;SDS011;4164;49.844;8.830;2022-10-22T06:12:45;3.20;;;1.40;;
8247;SDS011;4164;49.844;8.830;2022-10-22T06:15:12;2.37;;;1.33;;
8247;SDS011;4164;49.844;8.830;2022-10-22T06:17:39;2.67;;;1.40;;
8247;SDS011;4164;49.844;8.830;2022-10-22T06:20:05;2.73;;;1.60;;
8247;SDS011;4164;49.844;8.830;2022-10-22T06:22:31;1.80;;;1.40;;
8247;SDS011;4164;49.844;8.830;2022-10-22T06:24:57;4.83;;;1.50;;
8247;SDS011;4164;49.844;8.830;2022-10-22T06:27:23;2.80;;;1.67;;
8247;SDS011;4164;49.844;8.830;2022-10-22T06:29:48;2.53;;;1.70;;
8247;SDS011;4164;49.844;8.830;2022-10-22T06:32:14;8.80;;;3.03;;
8247;SDS011;4164;49.844;8.830;2022-10-22T06:34:39;4.70;;;2.93;;
8247;SDS011;4164;49.844;8.830;2022-10-22T06:37:05;2.70;;;2.10;;
8247;SDS011;4164;49.844;8.830;2022-10-22T06:39:31;11.60;;;2.13;;
8247;SDS011;4164;49.844;8.830;2022-10-22T06:41:56;2.33;;;1.43;;
8247;SDS011;4164;49.844;8.830;2022-10-22T06:44:22;2.70;;;1.37;;
8247;SDS011;4164;49.844;8.830;2022-10-22T06:46:48;5.03;;;1.67;;
8247;SDS011;4164;49.844;8.830;2022-10-22T06:49:16;2.70;;;1.70;;
8247;SDS011;4164;49.844;8.830;2022-10-22T06:51:42;2.97;;;2.17;;
8247;SDS011;4164;49.844;8.830;2022-10-22T06:54:08;2.37;;;1.73;;
8247;SDS011;4164;49.844;8.830;2022-10-22T06:56:34;6.27;;;1.67;;
8247;SDS011;4164;49.844;8.830;2022-10-22T06:59:00;3.50;;;2.43;;
8247;SDS011;4164;49.844;8.830;2022-10-22T07:01:26;2.03;;;1.57;;
8247;SDS011;4164;49.844;8.830;2022-10-22T07:03:54;2.43;;;1.93;;
8247;SDS011;4164;49.844;8.830;2022-10-22T07:06:20;2.63;;;1.87;;
8247;SDS011;4164;49.844;8.830;2022-10-22T07:08:47;2.93;;;1.97;;
8247;SDS011;4164;49.844;8.830;2022-10-22T07:11:13;2.67;;;1.80;;
8247;SDS011;4164;49.844;8.830;2022-10-22T07:13:40;3.77;;;1.90;;
8247;SDS011;4164;49.844;8.830;2022-10-22T07:16:07;4.83;;;1.47;;
8247;SDS011;4164;49.844;8.830;2022-10-22T07:18:33;2.47;;;1.70;;
8247;SDS011;4164;49.844;8.830;2022-10-22T07:21:00;1.60;;;1.50;;
8247;SDS011;4164;49.844;8.830;2022-10-22T07:23:26;3.90;;;1.50;;
8247;SDS011;4164;49.844;8.830;2022-10-22T07:25:53;5.40;;;1.47;;
8247;SDS011;4164;49.844;8.830;2022-10-22T07:28:19;1.53;;;1.30;;
8247;SDS011;4164;49.844;8.830;2022-10-22T07:30:44;4.30;;;1.30;;
8247;SDS011;4164;49.844;8.830;2022-10-22T07:33:10;3.23;;;1.20;;
8247;SDS011;4164;49.844;8.830;2022-10-22T07:35:36;4.00;;;1.10;;
8247;SDS011;4164;49.844;8.830;2022-10-22T07:38:03;2.07;;;0.93;;
8247;SDS011;4164;49.844;8.830;2022-10-22T07:40:29;1.77;;;1.20;;
8247;SDS011;4164;49.844;8.830;2022-10-22T07:42:55;1.03;;;1.00;;
8247;SDS011;4164;49.844;8.830;2022-10-22T07:45:20;1.63;;;1.03;;
8247;SDS011;4164;49.844;8.830;2022-10-22T07:47:46;0.97;;;0.87;;
8247;SDS011;4164;49.844;8.830;2022-10-22T07:50:12;0.60;;;0.60;;
8247;SDS011;4164;49.844;8.830;2022-10-22T07:52:38;0.97;;;0.90;;
8247;SDS011;4164;49.844;8.830;2022-10-22T07:55:04;2.93;;;1.00;;
8247;SDS011;4164;49.844;8.830;2022-10-22T07:57:30;2.17;;;0.83;;
8247;SDS011;4164;49.844;8.830;2022-10-22T07:59:55;1.57;;;1.10;;
8247;SDS011;4164;49.844;8.830;2022-10-22T08:02:25;0.73;;;0.70;;
8247;SDS011;4164;49.844;8.830;2022-10-22T08:04:50;1.17;;;0.70;;
8247;SDS011;4164;49.844;8.830;2022-10-22T08:07:16;0.93;;;0.77;;
8247;SDS011;4164;49.844;8.830;2022-10-22T08:09:43;7.37;;;0.80;;
8247;SDS011;4164;49.844;8.830;2022-10-22T08:12:09;0.80;;;0.57;;
8247;SDS011;4164;49.844;8.830;2022-10-22T08:14:34;2.33;;;0.80;;
8247;SDS011;4164;49.844;8.830;2022-10-22T08:17:00;3.67;;;1.57;;
8247;SDS011;4164;49.844;8.830;2022-10-22T08:19:26;3.70;;;0.90;;
8247;SDS011;4164;49.844;8.830;2022-10-22T08:21:52;2.27;;;0.90;;
8247;SDS011;4164;49.844;8.830;2022-10-22T08:24:18;1.00;;;0.77;;
8247;SDS011;4164;49.844;8.830;2022-10-22T08:26:44;3.27;;;1.00;;
8247;SDS011;4164;49.844;8.830;2022-10-22T08:29:09;1.17;;;0.80;;
8247;SDS011;4164;49.844;8.830;2022-10-22T08:31:38;1.77;;;0.93;;
8247;SDS011;4164;49.844;8.830;2022-10-22T08:34:03;5.07;;;1.10;;
8247;SDS011;4164;49.844;8.830;2022-10-22T08:36:29;1.70;;;0.83;;
8247;SDS011;4164;49.844;8.830;2022-10-22T08:38:55;1.27;;;0.90;;
8247;SDS011;4164;49.844;8.830;2022-10-22T08:41:21;1.07;;;0.90;;
8247;SDS011;4164;49.844;8.830;2022-10-22T08:49:32;2.47;;;0.90;;
8247;SDS011;4164;49.844;8.830;2022-10-22T08:52:00;1.17;;;0.80;;
8247;SDS011;4164;49.844;8.830;2022-10-22T09:08:11;1.60;;;0.73;;
8247;SDS011;4164;49.844;8.830;2022-10-22T09:10:44;1.50;;;0.70;;
8247;SDS011;4164;49.844;8.830;2022-10-22T09:13:15;1.73;;;0.73;;
8247;SDS011;4164;49.844;8.830;2022-10-22T09:15:44;1.77;;;0.70;;
8247;SDS011;4164;49.844;8.830;2022-10-22T09:18:18;1.97;;;0.57;;
8247;SDS011;4164;49.844;8.830;2022-10-22T09:20:55;1.37;;;0.77;;
8247;SDS011;4164;49.844;8.830;2022-10-22T09:24:12;1.23;;;0.80;;
8247;SDS011;4164;49.844;8.830;2022-10-22T09:26:36;1.93;;;0.90;;
8247;SDS011;4164;49.844;8.830;2022-10-22T09:29:03;2.93;;;0.90;;
8247;SDS011;4164;49.844;8.830;2022-10-22T09:31:30;1.50;;;0.90;;
8247;SDS011;4164;49.844;8.830;2022-10-22T09:33:57;1.13;;;0.60;;
8247;SDS011;4164;49.844;8.830;2022-10-22T09:36:27;0.63;;;0.63;;
8247;SDS011;4164;49.844;8.830;2022-10-22T09:38:53;0.50;;;0.50;;
8247;SDS011;4164;49.844;8.830;2022-10-22T09:41:21;3.30;;;0.83;;
8247;SDS011;4164;49.844;8.830;2022-10-22T09:43:49;2.43;;;0.87;;
8247;SDS011;4164;49.844;8.830;2022-10-22T09:46:19;2.57;;;0.90;;
8247;SDS011;4164;49.844;8.830;2022-10-22T09:48:51;1.90;;;0.83;;
8247;SDS011;4164;49.844;8.830;2022-10-22T09:51:21;3.07;;;1.00;;
8247;SDS011;4164;49.844;8.830;2022-10-22T09:54:00;2.23;;;1.00;;
8247;SDS011;4164;49.844;8.830;2022-10-22T09:56:40;4.27;;;1.00;;
8247;SDS011;4164;49.844;8.830;2022-10-22T09:59:13;2.20;;;0.90;;
8247;SDS011;4164;49.844;8.830;2022-10-22T10:01:40;4.00;;;1.00;;
8247;SDS011;4164;49.844;8.830;2022-10-22T10:04:09;2.30;;;1.07;;
8247;SDS011;4164;49.844;8.830;2022-10-22T10:06:37;3.87;;;1.20;;
8247;SDS011;4164;49.844;8.830;2022-10-22T10:09:08;3.77;;;1.50;;
8247;SDS011;4164;49.844;8.830;2022-10-22T10:11:45;3.37;;;1.30;;
8247;SDS011;4164;49.844;8.830;2022-10-22T10:25:02;3.03;;;1.07;;
8247;SDS011;4164;49.844;8.830;2022-10-22T10:27:37;3.00;;;1.30;;
8247;SDS011;4164;49.844;8.830;2022-10-22T10:30:15;3.77;;;1.27;;
8247;SDS011;4164;49.844;8.830;2022-10-22T10:35:57;3.73;;;1.10;;
8247;SDS011;4164;49.844;8.830;2022-10-22T10:38:33;2.23;;;1.40;;
8247;SDS011;4164;49.844;8.830;2022-10-22T10:41:07;1.20;;;1.10;;
8247;SDS011;4164;49.844;8.830;2022-10-22T10:44:02;4.13;;;1.07;;
8247;SDS011;4164;49.844;8.830;2022-10-22T10:49:29;3.37;;;0.90;;
8247;SDS011;4164;49.844;8.830;2022-10-22T10:52:04;1.90;;;1.00;;
8247;SDS011;4164;49.844;8.830;2022-10-22T10:55:12;3.63;;;1.30;;
8247;SDS011;4164;49.844;8.830;2022-10-22T11:01:09;2.10;;;1.30;;
8247;SDS011;4164;49.844;8.830;2022-10-22T11:06:17;2.87;;;1.60;;
8247;SDS011;4164;49.844;8.830;2022-10-22T11:08:46;10.77;;;1.70;;
8247;SDS011;4164;49.844;8.830;2022-10-22T11:17:15;2.90;;;1.67;;
8247;SDS011;4164;49.844;8.830;2022-10-22T11:19:44;1.77;;;1.40;;
8247;SDS011;4164;49.844;8.830;2022-10-22T11:27:38;3.13;;;1.30;;
8247;SDS011;4164;49.844;8.830;2022-10-22T11:32:40;4.00;;;1.20;;
8247;SDS011;4164;49.844;8.830;2022-10-22T11:35:11;3.87;;;1.30;;
8247;SDS011;4164;49.844;8.830;2022-10-22T11:37:40;3.47;;;1.40;;
8247;SDS011;4164;49.844;8.830;2022-10-22T11:42:48;2.83;;;1.40;;
8247;SDS011;4164;49.844;8.830;2022-10-22T11:53:34;5.33;;;1.77;;
8247;SDS011;4164;49.844;8.830;2022-10-22T12:06:14;2.27;;;1.50;;
8247;SDS011;4164;49.844;8.830;2022-10-22T12:19:34;2.77;;;1.40;;
8247;SDS011;4164;49.844;8.830;2022-10-22T12:22:12;5.13;;;1.10;;
8247;SDS011;4164;49.844;8.830;2022-10-22T12:24:48;4.07;;;1.50;;
8247;SDS011;4164;49.844;8.830;2022-10-22T12:27:23;4.53;;;1.67;;
8247;SDS011;4164;49.844;8.830;2022-10-22T12:29:58;4.10;;;1.50;;
8247;SDS011;4164;49.844;8.830;2022-10-22T12:32:35;2.33;;;1.30;;
8247;SDS011;4164;49.844;8.830;2022-10-22T12:35:04;1.80;;;1.23;;
8247;SDS011;4164;49.844;8.830;2022-10-22T12:37:33;4.87;;;1.60;;
8247;SDS011;4164;49.844;8.830;2022-10-22T12:40:00;2.40;;;1.30;;
8247;SDS011;4164;49.844;8.830;2022-10-22T12:42:27;3.13;;;1.40;;
8247;SDS011;4164;49.844;8.830;2022-10-22T12:44:57;1.63;;;1.30;;
8247;SDS011;4164;49.844;8.830;2022-10-22T12:47:22;5.33;;;2.20;;
8247;SDS011;4164;49.844;8.830;2022-10-22T12:49:48;2.93;;;1.30;;
8247;SDS011;4164;49.844;8.830;2022-10-22T12:52:18;5.13;;;1.53;;
8247;SDS011;4164;49.844;8.830;2022-10-22T12:54:46;4.80;;;1.50;;
8247;SDS011;4164;49.844;8.830;2022-10-22T12:57:17;4.57;;;2.00;;
8247;SDS011;4164;49.844;8.830;2022-10-22T12:59:45;3.17;;;1.60;;
8247;SDS011;4164;49.844;8.830;2022-10-22T13:02:21;4.10;;;1.40;;
8247;SDS011;4164;49.844;8.830;2022-10-22T13:08:00;4.43;;;1.23;;
8247;SDS011;4164;49.844;8.830;2022-10-22T13:10:40;3.07;;;1.47;;
8247;SDS011;4164;49.844;8.830;2022-10-22T13:13:31;1.53;;;1.20;;
8247;SDS011;4164;49.844;8.830;2022-10-22T13:18:48;9.03;;;1.70;;
8247;SDS011;4164;49.844;8.830;2022-10-22T13:23:53;2.93;;;1.40;;
8247;SDS011;4164;49.844;8.830;2022-10-22T13:26:24;4.23;;;1.47;;
8247;SDS011;4164;49.844;8.830;2022-10-22T13:28:58;4.90;;;1.83;;
8247;SDS011;4164;49.844;8.830;2022-10-22T13:31:29;2.40;;;1.60;;
8247;SDS011;4164;49.844;8.830;2022-10-22T13:34:02;8.73;;;1.80;;
8247;SDS011;4164;49.844;8.830;2022-10-22T13:36:30;4.17;;;1.80;;
8247;SDS011;4164;49.844;8.830;2022-10-22T13:38:56;6.63;;;1.73;;
8247;SDS011;4164;49.844;8.830;2022-10-22T13:41:23;4.67;;;1.87;;
8247;SDS011;4164;49.844;8.830;2022-10-22T13:43:50;3.73;;;1.43;;
8247;SDS011;4164;49.844;8.830;2022-10-22T13:46:17;2.43;;;1.20;;
8247;SDS011;4164;49.844;8.830;2022-10-22T13:48:44;3.50;;;1.10;;
8247;SDS011;4164;49.844;8.830;2022-10-22T13:51:18;4.90;;;1.77;;
8247;SDS011;4164;49.844;8.830;2022-10-22T13:54:03;3.00;;;1.13;;
8247;SDS011;4164;49.844;8.830;2022-10-22T13:56:37;3.47;;;1.40;;
8247;SDS011;4164;49.844;8.830;2022-10-22T13:59:03;3.73;;;1.83;;
8247;SDS011;4164;49.844;8.830;2022-10-22T14:01:28;3.93;;;1.40;;
8247;SDS011;4164;49.844;8.830;2022-10-22T14:03:55;2.57;;;1.27;;
8247;SDS011;4164;49.844;8.830;2022-10-22T14:06:23;6.17;;;1.40;;
8247;SDS011;4164;49.844;8.830;2022-10-22T14:08:57;3.67;;;1.40;;
8247;SDS011;4164;49.844;8.830;2022-10-22T14:11:25;4.13;;;1.37;;
8247;SDS011;4164;49.844;8.830;2022-10-22T14:13:51;2.90;;;1.47;;
8247;SDS011;4164;49.844;8.830;2022-10-22T14:16:26;3.23;;;1.33;;
8247;SDS011;4164;49.844;8.830;2022-10-22T14:18:55;2.13;;;1.10;;
8247;SDS011;4164;49.844;8.830;2022-10-22T14:21:21;2.43;;;1.40;;
8247;SDS011;4164;49.844;8.830;2022-10-22T14:23:47;4.23;;;1.50;;
8247;SDS011;4164;49.844;8.830;2022-10-22T14:26:25;4.17;;;1.40;;
8247;SDS011;4164;49.844;8.830;2022-10-22T14:29:00;3.90;;;1.50;;
8247;SDS011;4164;49.844;8.830;2022-10-22T14:31:26;4.20;;;1.60;;
8247;SDS011;4164;49.844;8.830;2022-10-22T14:33:52;2.93;;;1.50;;
8247;SDS011;4164;49.844;8.830;2022-10-22T14:36:18;4.27;;;1.40;;
8247;SDS011;4164;49.844;8.830;2022-10-22T14:38:44;6.00;;;1.70;;
8247;SDS011;4164;49.844;8.830;2022-10-22T14:43:47;2.80;;;1.50;;
8247;SDS011;4164;49.844;8.830;2022-10-22T14:46:14;7.07;;;1.60;;
8247;SDS011;4164;49.844;8.830;2022-10-22T14:48:40;6.43;;;1.37;;
8247;SDS011;4164;49.844;8.830;2022-10-22T14:51:08;2.20;;;1.43;;
8247;SDS011;4164;49.844;8.830;2022-10-22T14:53:39;5.20;;;1.60;;
8247;SDS011;4164;49.844;8.830;2022-10-22T14:56:05;5.00;;;1.40;;
8247;SDS011;4164;49.844;8.830;2022-10-22T14:58:30;5.27;;;1.53;;
8247;SDS011;4164;49.844;8.830;2022-10-22T15:00:56;2.53;;;1.50;;
8247;SDS011;4164;49.844;8.830;2022-10-22T15:03:22;3.17;;;1.47;;
8247;SDS011;4164;49.844;8.830;2022-10-22T15:05:50;2.47;;;1.47;;
8247;SDS011;4164;49.844;8.830;2022-10-22T15:08:17;4.20;;;1.70;;
8247;SDS011;4164;49.844;8.830;2022-10-22T15:10:43;4.30;;;1.53;;
8247;SDS011;4164;49.844;8.830;2022-10-22T15:13:09;2.83;;;1.70;;
8247;SDS011;4164;49.844;8.830;2022-10-22T15:15:34;9.73;;;1.97;;
8247;SDS011;4164;49.844;8.830;2022-10-22T15:18:00;4.17;;;1.70;;
8247;SDS011;4164;49.844;8.830;2022-10-22T15:20:25;4.93;;;1.57;;
8247;SDS011;4164;49.844;8.830;2022-10-22T15:22:51;3.23;;;1.43;;
8247;SDS011;4164;49.844;8.830;2022-10-22T15:25:17;3.97;;;1.43;;
8247;SDS011;4164;49.844;8.830;2022-10-22T15:27:42;3.70;;;1.40;;
8247;SDS011;4164;49.844;8.830;2022-10-22T15:30:09;3.87;;;1.70;;
8247;SDS011;4164;49.844;8.830;2022-10-22T15:32:34;5.13;;;1.70;;
8247;SDS011;4164;49.844;8.830;2022-10-22T15:35:00;2.70;;;1.60;;
8247;SDS011;4164;49.844;8.830;2022-10-22T15:37:26;3.77;;;1.20;;
8247;SDS011;4164;49.844;8.830;2022-10-22T15:39:51;2.40;;;1.10;;
8247;SDS011;4164;49.844;8.830;2022-10-22T15:42:17;4.13;;;1.70;;
8247;SDS011;4164;49.844;8.830;2022-10-22T15:44:43;3.23;;;1.53;;
8247;SDS011;4164;49.844;8.830;2022-10-22T15:47:09;4.80;;;1.70;;
8247;SDS011;4164;49.844;8.830;2022-10-22T15:49:37;3.13;;;1.70;;
8247;SDS011;4164;49.844;8.830;2022-10-22T15:52:06;5.47;;;1.60;;
8247;SDS011;4164;49.844;8.830;2022-10-22T15:54:32;4.50;;;1.77;;
8247;SDS011;4164;49.844;8.830;2022-10-22T15:56:59;3.33;;;1.50;;
8247;SDS011;4164;49.844;8.830;2022-10-22T15:59:32;6.20;;;1.33;;
8247;SDS011;4164;49.844;8.830;2022-10-22T16:01:58;6.87;;;1.97;;
8247;SDS011;4164;49.844;8.830;2022-10-22T16:04:24;3.50;;;1.57;;
8247;SDS011;4164;49.844;8.830;2022-10-22T16:06:50;6.47;;;2.23;;
8247;SDS011;4164;49.844;8.830;2022-10-22T16:09:18;3.53;;;1.70;;
8247;SDS011;4164;49.844;8.830;2022-10-22T16:11:45;4.03;;;1.73;;
8247;SDS011;4164;49.844;8.830;2022-10-22T16:14:12;5.40;;;1.70;;
8247;SDS011;4164;49.844;8.830;2022-10-22T16:16:41;4.00;;;1.70;;
8247;SDS011;4164;49.844;8.830;2022-10-22T16:19:12;4.60;;;1.57;;
8247;SDS011;4164;49.844;8.830;2022-10-22T16:21:39;6.20;;;1.73;;
8247;SDS011;4164;49.844;8.830;2022-10-22T16:24:05;3.50;;;1.80;;
8247;SDS011;4164;49.844;8.830;2022-10-22T16:26:31;4.47;;;2.00;;
8247;SDS011;4164;49.844;8.830;2022-10-22T16:28:57;8.00;;;2.70;;
8247;SDS011;4164;49.844;8.830;2022-10-22T16:31:23;6.97;;;2.53;;
8247;SDS011;4164;49.844;8.830;2022-10-22T16:33:48;3.67;;;2.80;;
8247;SDS011;4164;49.844;8.830;2022-10-22T16:36:15;4.97;;;2.77;;
8247;SDS011;4164;49.844;8.830;2022-10-22T16:38:42;7.03;;;2.73;;
8247;SDS011;4164;49.844;8.830;2022-10-22T16:41:29;6.43;;;3.03;;
8247;SDS011;4164;49.844;8.830;2022-10-22T16:43:59;7.67;;;2.60;;
8247;SDS011;4164;49.844;8.830;2022-10-22T16:46:27;5.07;;;2.40;;
8247;SDS011;4164;49.844;8.830;2022-10-22T16:48:54;6.10;;;2.40;;
8247;SDS011;4164;49.844;8.830;2022-10-22T16:51:20;6.47;;;2.33;;
8247;SDS011;4164;49.844;8.830;2022-10-22T16:53:49;4.83;;;2.57;;
8247;SDS011;4164;49.844;8.830;2022-10-22T16:56:16;8.47;;;2.43;;
8247;SDS011;4164;49.844;8.830;2022-10-22T16:58:43;6.30;;;2.47;;
8247;SDS011;4164;49.844;8.830;2022-10-22T17:01:10;4.10;;;2.20;;
8247;SDS011;4164;49.844;8.830;2022-10-22T17:03:36;5.63;;;3.03;;
8247;SDS011;4164;49.844;8.830;2022-10-22T17:06:02;6.87;;;3.50;;
8247;SDS011;4164;49.844;8.830;2022-10-22T17:08:29;4.67;;;2.90;;
8247;SDS011;4164;49.844;8.830;2022-10-22T17:11:05;6.77;;;3.57;;
8247;SDS011;4164;49.844;8.830;2022-10-22T17:13:35;7.70;;;3.40;;
8247;SDS011;4164;49.844;8.830;2022-10-22T17:16:04;7.03;;;2.93;;
8247;SDS011;4164;49.844;8.830;2022-10-22T17:18:32;9.40;;;3.00;;
8247;SDS011;4164;49.844;8.830;2022-10-22T17:20:59;5.17;;;3.33;;
8247;SDS011;4164;49.844;8.830;2022-10-22T17:23:25;5.30;;;3.50;;
8247;SDS011;4164;49.844;8.830;2022-10-22T17:25:59;8.57;;;3.80;;
8247;SDS011;4164;49.844;8.830;2022-10-22T17:28:26;5.77;;;3.77;;
8247;SDS011;4164;49.844;8.830;2022-10-22T17:31:03;9.10;;;4.07;;